Time;durP1;ratioP1;P1;durP2;ratioP2;P2;SDS_P1;SDS_P2;PMS_P1;PMS_P2;Temp;Humidity;BMP_temperature;BMP_pressure;BME280_temperature;BME280_humidity;BME280_pressure;Samples;Min_cycle;Max_cycle;Signal;HPM_P1;HPM_P2
2021/03/12 00:00:15;;;;;;;7.13;2.43;;;6.40;99.90;;;;;;5048238;28;20222;-67
2021/03/12 00:02:43;;;;;;;11.27;2.47;;;6.40;99.90;;;;;;5047630;28;20208;-67
2021/03/12 00:05:11;;;;;;;11.23;2.57;;;6.40;99.90;;;;;;5050496;28;20196;-67
2021/03/12 00:07:38;;;;;;;7.73;2.10;;;6.40;99.90;;;;;;5051545;28;20219;-66
2021/03/12 00:10:10;;;;;;;9.60;2.60;;;6.40;99.90;;;;;;5049629;28;20228;-67
2021/03/12 00:12:36;;;;;;;12.37;2.53;;;6.40;99.90;;;;;;5053013;28;20188;-67
2021/03/12 00:15:07;;;;;;;7.47;2.13;;;6.30;99.90;;;;;;5049023;28;20563;-67
2021/03/12 00:17:33;;;;;;;8.97;2.17;;;6.30;99.90;;;;;;5045057;28;20218;-66
2021/03/12 00:20:00;;;;;;;12.13;2.77;;;6.30;99.90;;;;;;5052073;28;20203;-68
2021/03/12 00:22:27;;;;;;;8.60;2.63;;;6.30;99.90;;;;;;5050233;28;20561;-67
2021/03/12 00:24:53;;;;;;;11.23;2.90;;;6.30;99.90;;;;;;5051468;28;20202;-66
2021/03/12 00:27:20;;;;;;;12.23;2.50;;;6.30;99.90;;;;;;5046578;28;20200;-67
2021/03/12 00:29:47;;;;;;;7.83;2.70;;;6.30;99.90;;;;;;5056511;28;20195;-67
2021/03/12 00:32:13;;;;;;;8.47;2.30;;;6.20;99.90;;;;;;5052814;28;20203;-67
2021/03/12 00:34:40;;;;;;;9.63;2.87;;;6.20;99.90;;;;;;5051463;28;20199;-67
2021/03/12 00:37:06;;;;;;;6.97;1.90;;;6.20;99.90;;;;;;5049767;28;20230;-67
2021/03/12 00:39:33;;;;;;;7.93;2.40;;;6.20;99.90;;;;;;5051378;28;20200;-67
2021/03/12 00:42:00;;;;;;;5.73;2.00;;;6.20;99.90;;;;;;5049331;28;20199;-67
2021/03/12 00:44:27;;;;;;;6.23;1.73;;;6.20;99.90;;;;;;5049096;28;20557;-68
2021/03/12 00:46:54;;;;;;;10.47;2.30;;;6.20;99.90;;;;;;5055654;28;20652;-66
2021/03/12 00:49:21;;;;;;;8.27;2.37;;;6.20;99.90;;;;;;5052642;28;20196;-67
2021/03/12 00:51:48;;;;;;;9.10;2.67;;;6.10;99.90;;;;;;5048058;28;20199;-67
2021/03/12 00:54:14;;;;;;;12.23;2.93;;;6.10;99.90;;;;;;5051020;28;20657;-66
2021/03/12 00:56:41;;;;;;;6.90;2.33;;;6.10;99.90;;;;;;5050351;28;20233;-66
2021/03/12 00:59:07;;;;;;;8.70;2.00;;;6.10;99.90;;;;;;5050113;28;20199;-66
2021/03/12 01:01:35;;;;;;;13.23;2.17;;;6.10;99.90;;;;;;5049302;28;21198;-67
2021/03/12 01:04:01;;;;;;;10.80;2.40;;;6.10;99.90;;;;;;5047057;28;20198;-67
2021/03/12 01:06:27;;;;;;;6.83;2.40;;;6.10;99.90;;;;;;5049635;28;20195;-67
2021/03/12 01:08:54;;;;;;;8.73;2.30;;;6.10;99.90;;;;;;5049935;28;20783;-67
2021/03/12 01:11:21;;;;;;;7.83;2.33;;;6.10;99.90;;;;;;5052291;28;20196;-67
2021/03/12 01:13:47;;;;;;;12.93;3.37;;;6.10;99.90;;;;;;5050604;28;20206;-67
2021/03/12 01:16:14;;;;;;;11.57;2.40;;;6.00;99.90;;;;;;5047840;28;20746;-66
2021/03/12 01:18:41;;;;;;;13.70;2.53;;;6.00;99.90;;;;;;5049565;28;20196;-66
2021/03/12 01:21:07;;;;;;;9.47;2.70;;;6.00;99.90;;;;;;5049699;28;20587;-67
2021/03/12 01:23:34;;;;;;;12.13;2.23;;;5.90;99.90;;;;;;5050356;28;20276;-66
2021/03/12 01:26:00;;;;;;;7.10;1.97;;;5.90;99.90;;;;;;5041022;28;20615;-67
2021/03/12 01:28:27;;;;;;;9.17;2.30;;;6.00;99.90;;;;;;5048914;28;20204;-66
2021/03/12 01:30:53;;;;;;;7.43;2.33;;;5.90;99.90;;;;;;5047966;28;20203;-66
2021/03/12 01:33:20;;;;;;;10.10;2.03;;;5.90;99.90;;;;;;5061525;28;20244;-66
2021/03/12 01:35:47;;;;;;;12.53;2.63;;;5.90;99.90;;;;;;5053865;28;20615;-66
2021/03/12 01:38:14;;;;;;;6.90;2.20;;;5.90;99.90;;;;;;5051352;28;20553;-67
2021/03/12 01:40:44;;;;;;;5.67;2.30;;;6.00;99.90;;;;;;5052957;28;20258;-68
2021/03/12 01:43:11;;;;;;;7.90;2.27;;;5.90;99.90;;;;;;5053400;28;20199;-66
2021/03/12 01:45:39;;;;;;;6.43;2.10;;;6.00;99.90;;;;;;5048794;28;20253;-67
2021/03/12 01:48:09;;;;;;;7.13;2.43;;;6.00;99.90;;;;;;5072210;28;20233;-67
2021/03/12 01:50:36;;;;;;;8.67;2.17;;;6.00;99.90;;;;;;5053808;28;20207;-67
2021/03/12 01:53:06;;;;;;;9.57;1.93;;;6.00;99.90;;;;;;5054417;28;20204;-67
2021/03/12 01:55:34;;;;;;;9.87;2.53;;;6.00;99.90;;;;;;5051090;28;20679;-66
2021/03/12 01:58:02;;;;;;;7.30;2.03;;;6.00;99.90;;;;;;5053821;28;20645;-67
2021/03/12 02:00:29;;;;;;;7.13;2.33;;;6.00;99.90;;;;;;5049467;28;20207;-67
2021/03/12 02:02:56;;;;;;;9.13;3.07;;;6.00;99.90;;;;;;5048334;28;20200;-67
2021/03/12 02:05:22;;;;;;;13.77;2.87;;;5.90;99.90;;;;;;5053214;28;20204;-67
2021/03/12 02:07:49;;;;;;;8.97;2.53;;;5.90;99.90;;;;;;5050736;28;20257;-66
2021/03/12 02:10:21;;;;;;;8.23;2.30;;;5.90;99.90;;;;;;5052660;28;20597;-67
2021/03/12 02:12:54;;;;;;;9.73;3.10;;;5.90;99.90;;;;;;5049552;28;20679;-68
2021/03/12 02:15:28;;;;;;;11.43;2.90;;;5.80;99.90;;;;;;5046898;28;20975;-67
2021/03/12 02:18:07;;;;;;;8.33;2.20;;;5.80;99.90;;;;;;5044382;28;20346;-68
2021/03/12 02:20:46;;;;;;;7.17;2.30;;;5.80;99.90;;;;;;5035187;28;20682;-67
2021/03/12 02:23:19;;;;;;;8.67;2.40;;;5.80;99.90;;;;;;5055194;28;20187;-67
2021/03/12 02:25:52;;;;;;;13.63;2.30;;;5.80;99.90;;;;;;5053957;28;20196;-67
2021/03/12 02:28:21;;;;;;;12.07;2.60;;;5.80;99.90;;;;;;5052855;28;20649;-68
2021/03/12 02:30:49;;;;;;;11.17;2.73;;;5.90;99.90;;;;;;5052683;28;20199;-68
2021/03/12 02:33:16;;;;;;;8.43;2.17;;;5.80;99.90;;;;;;5053405;28;20207;-67
2021/03/12 02:35:46;;;;;;;9.70;2.50;;;5.80;99.90;;;;;;5052760;28;20207;-67
2021/03/12 02:38:13;;;;;;;6.00;2.00;;;5.80;99.90;;;;;;5039942;28;20196;-67
2021/03/12 02:40:40;;;;;;;10.73;1.97;;;5.80;99.90;;;;;;5052236;28;20319;-67
2021/03/12 02:43:07;;;;;;;9.30;2.70;;;5.80;99.90;;;;;;5051602;28;20552;-67
2021/03/12 02:45:34;;;;;;;8.37;2.57;;;5.80;99.90;;;;;;5067134;28;20199;-67
2021/03/12 02:48:02;;;;;;;6.87;2.30;;;5.70;99.90;;;;;;5074446;28;20978;-68
2021/03/12 02:50:28;;;;;;;8.50;2.23;;;5.70;99.90;;;;;;5071337;28;20214;-68
2021/03/12 02:52:55;;;;;;;12.17;2.10;;;5.70;99.90;;;;;;5054782;28;20206;-68
2021/03/12 02:55:22;;;;;;;9.83;2.60;;;5.70;99.90;;;;;;5054766;28;20219;-68
2021/03/12 02:57:48;;;;;;;10.37;2.53;;;5.70;99.90;;;;;;5071685;28;20280;-68
2021/03/12 03:00:16;;;;;;;12.20;2.90;;;5.70;99.90;;;;;;5053155;28;20196;-68
2021/03/12 03:02:44;;;;;;;13.20;3.70;;;5.60;99.90;;;;;;5052220;28;20202;-69
2021/03/12 03:05:12;;;;;;;9.30;2.60;;;5.60;99.90;;;;;;5050630;28;20262;-67
2021/03/12 03:07:40;;;;;;;9.63;2.33;;;5.60;99.90;;;;;;5052216;28;20668;-67
2021/03/12 03:10:09;;;;;;;6.70;2.47;;;5.60;99.90;;;;;;5053942;28;20254;-67
2021/03/12 03:12:36;;;;;;;9.97;2.73;;;5.60;99.90;;;;;;5061364;28;20230;-67
2021/03/12 03:15:06;;;;;;;13.13;3.10;;;5.60;99.90;;;;;;5070291;28;20468;-68
2021/03/12 03:17:37;;;;;;;10.10;2.80;;;5.60;99.90;;;;;;5053692;28;20580;-67
2021/03/12 03:20:09;;;;;;;13.83;2.87;;;5.50;99.90;;;;;;5052932;28;20660;-67
2021/03/12 03:22:37;;;;;;;10.80;3.40;;;5.50;99.90;;;;;;5053068;28;20192;-67
2021/03/12 03:25:05;;;;;;;14.57;4.00;;;5.40;99.90;;;;;;5052270;28;20207;-67
2021/03/12 03:27:32;;;;;;;12.10;2.80;;;5.40;99.90;;;;;;5050062;28;20290;-67
2021/03/12 03:29:59;;;;;;;12.33;2.80;;;5.40;99.90;;;;;;5053876;28;20215;-67
2021/03/12 03:32:25;;;;;;;13.27;2.63;;;5.30;99.90;;;;;;5056139;28;20199;-67
2021/03/12 03:34:52;;;;;;;20.67;3.83;;;5.30;99.90;;;;;;5073868;28;20245;-67
2021/03/12 03:37:19;;;;;;;11.23;2.93;;;5.30;99.90;;;;;;5055468;28;20243;-67
2021/03/12 03:39:45;;;;;;;12.07;2.67;;;5.20;99.90;;;;;;5052615;28;20204;-67
2021/03/12 03:42:14;;;;;;;11.23;2.40;;;5.20;99.90;;;;;;5051718;28;20245;-68
2021/03/12 03:44:43;;;;;;;8.17;2.33;;;5.10;99.90;;;;;;5053453;28;20603;-67
2021/03/12 03:47:11;;;;;;;8.87;2.50;;;5.10;99.90;;;;;;5052108;28;20207;-68
2021/03/12 03:49:41;;;;;;;9.57;2.40;;;5.10;99.90;;;;;;5052212;28;20273;-67
2021/03/12 03:52:09;;;;;;;10.77;2.43;;;5.10;99.90;;;;;;5050087;28;20203;-68
2021/03/12 03:54:38;;;;;;;9.03;2.70;;;5.10;99.90;;;;;;5053689;28;20569;-68
2021/03/12 03:57:06;;;;;;;10.17;2.27;;;5.10;99.90;;;;;;5051397;28;20230;-68
2021/03/12 03:59:33;;;;;;;10.90;2.37;;;5.10;99.90;;;;;;5049596;28;20199;-68
2021/03/12 04:02:01;;;;;;;7.63;2.17;;;5.20;99.90;;;;;;5049931;28;20231;-68
2021/03/12 04:04:28;;;;;;;10.93;2.43;;;5.10;99.90;;;;;;5052162;28;20253;-68
2021/03/12 04:06:55;;;;;;;10.17;2.40;;;5.10;99.90;;;;;;5052511;28;20600;-67
2021/03/12 04:09:22;;;;;;;9.43;2.30;;;5.10;99.90;;;;;;5048925;28;20231;-69
2021/03/12 04:11:50;;;;;;;10.00;2.70;;;5.10;99.90;;;;;;5049040;28;20235;-68
2021/03/12 04:14:17;;;;;;;8.03;2.53;;;5.10;99.90;;;;;;5051882;28;20219;-67
2021/03/12 04:16:44;;;;;;;12.23;2.00;;;5.10;99.90;;;;;;5050904;28;20257;-68
2021/03/12 04:19:11;;;;;;;10.00;2.73;;;5.00;99.90;;;;;;5052410;28;20353;-67
2021/03/12 04:21:39;;;;;;;13.43;3.10;;;5.00;99.90;;;;;;5060186;28;20203;-69
2021/03/12 04:24:07;;;;;;;12.07;3.20;;;5.00;99.90;;;;;;5048994;28;20212;-68
2021/03/12 04:26:34;;;;;;;12.53;3.77;;;4.90;99.90;;;;;;5050543;28;20212;-69
2021/03/12 04:29:02;;;;;;;10.27;2.93;;;4.90;99.90;;;;;;5050440;28;20231;-69
2021/03/12 04:31:28;;;;;;;15.53;2.93;;;4.90;99.90;;;;;;5057357;28;20199;-68
2021/03/12 04:33:55;;;;;;;16.27;3.70;;;4.90;99.90;;;;;;5050344;28;20196;-68
2021/03/12 04:36:23;;;;;;;7.60;2.83;;;4.90;99.90;;;;;;5051363;28;20236;-68
2021/03/12 04:38:50;;;;;;;6.57;2.50;;;4.90;99.90;;;;;;5052608;28;20196;-67
2021/03/12 04:41:17;;;;;;;12.70;3.43;;;4.90;99.90;;;;;;5049666;28;20199;-68
2021/03/12 04:43:44;;;;;;;10.43;3.53;;;4.90;99.90;;;;;;5050336;28;20203;-68
2021/03/12 04:46:12;;;;;;;11.97;3.10;;;4.90;99.90;;;;;;5051798;28;20249;-68
2021/03/12 04:48:41;;;;;;;14.00;3.37;;;4.90;99.90;;;;;;5052494;28;20203;-67
2021/03/12 04:51:09;;;;;;;10.80;3.30;;;4.90;99.90;;;;;;5051737;28;20253;-68
2021/03/12 04:53:38;;;;;;;9.03;2.93;;;4.90;99.90;;;;;;5047561;28;20200;-67
2021/03/12 04:56:06;;;;;;;8.73;3.00;;;4.90;99.90;;;;;;5049962;28;20199;-68
2021/03/12 04:58:33;;;;;;;9.50;2.57;;;4.90;99.90;;;;;;5048948;28;20199;-67
2021/03/12 05:00:59;;;;;;;14.57;3.30;;;5.00;99.90;;;;;;5046036;28;20207;-68
2021/03/12 05:03:28;;;;;;;14.60;3.67;;;5.00;99.90;;;;;;5057615;28;20233;-68
2021/03/12 05:05:56;;;;;;;11.77;3.50;;;5.10;99.90;;;;;;5072324;28;20199;-68
2021/03/12 05:08:24;;;;;;;15.03;3.07;;;5.10;99.90;;;;;;5054519;28;20780;-68
2021/03/12 05:11:00;;;;;;;13.30;3.20;;;5.10;99.90;;;;;;5044946;28;20196;-68
2021/03/12 05:13:26;;;;;;;11.87;2.83;;;5.10;99.90;;;;;;5047202;28;20561;-67
2021/03/12 05:15:53;;;;;;;13.43;3.00;;;5.20;99.90;;;;;;5049598;28;20210;-68
2021/03/12 05:18:20;;;;;;;12.60;2.70;;;5.20;99.90;;;;;;5051805;28;20203;-68
2021/03/12 05:20:47;;;;;;;8.40;3.20;;;5.20;99.90;;;;;;5049300;28;20556;-69
2021/03/12 05:23:14;;;;;;;13.33;3.20;;;5.20;99.90;;;;;;5051076;28;20199;-68
2021/03/12 05:25:41;;;;;;;16.63;3.23;;;5.20;99.90;;;;;;5060194;28;20198;-69
2021/03/12 05:28:08;;;;;;;11.83;3.37;;;5.20;99.90;;;;;;5050636;28;20202;-67
2021/03/12 05:30:35;;;;;;;14.37;4.27;;;5.20;99.90;;;;;;5051023;28;20206;-68
2021/03/12 05:33:01;;;;;;;14.80;3.73;;;5.10;99.90;;;;;;5050850;28;20210;-68
2021/03/12 05:35:28;;;;;;;12.63;2.67;;;5.00;99.90;;;;;;5062327;28;20195;-69
2021/03/12 05:37:55;;;;;;;18.93;3.13;;;5.00;99.90;;;;;;5050903;28;20227;-68
2021/03/12 05:40:22;;;;;;;19.03;3.30;;;5.00;99.90;;;;;;5050436;28;22604;-69
2021/03/12 05:42:51;;;;;;;19.50;3.67;;;5.00;99.90;;;;;;5051276;28;20223;-68
2021/03/12 05:45:21;;;;;;;11.40;3.50;;;5.00;99.90;;;;;;5049898;28;20196;-68
2021/03/12 05:47:49;;;;;;;9.50;2.53;;;5.00;99.90;;;;;;5051649;28;20568;-68
2021/03/12 05:50:16;;;;;;;16.80;3.43;;;5.00;99.90;;;;;;5050875;28;20203;-69
2021/03/12 05:52:45;;;;;;;15.33;2.93;;;5.00;99.90;;;;;;5050528;28;20200;-68
2021/03/12 05:55:15;;;;;;;13.03;3.00;;;4.90;99.90;;;;;;5050581;28;20207;-68
2021/03/12 05:57:42;;;;;;;14.97;3.20;;;5.00;99.90;;;;;;5049487;28;20223;-68
2021/03/12 06:00:09;;;;;;;16.90;3.30;;;5.00;99.90;;;;;;5048381;28;20599;-68
2021/03/12 06:02:36;;;;;;;15.13;3.80;;;5.00;99.90;;;;;;5050222;28;20545;-67
2021/03/12 06:05:06;;;;;;;13.23;2.67;;;5.10;99.90;;;;;;5050349;28;20208;-68
2021/03/12 06:07:33;;;;;;;9.50;3.30;;;5.10;99.90;;;;;;5047088;28;20387;-67
2021/03/12 06:09:59;;;;;;;13.57;3.60;;;5.20;99.90;;;;;;5050133;28;20223;-68
2021/03/12 06:12:27;;;;;;;12.87;3.50;;;5.10;99.90;;;;;;5047268;28;20610;-68
2021/03/12 06:14:54;;;;;;;15.57;2.90;;;5.10;99.90;;;;;;5048719;28;20211;-68
2021/03/12 06:17:31;;;;;;;12.43;3.37;;;5.20;99.90;;;;;;5051131;28;20234;-67
2021/03/12 06:19:58;;;;;;;17.40;3.47;;;5.20;99.90;;;;;;5049256;28;20215;-67
2021/03/12 06:22:25;;;;;;;16.00;3.53;;;5.20;99.90;;;;;;5051882;28;20195;-67
2021/03/12 06:24:52;;;;;;;18.17;3.83;;;5.30;99.90;;;;;;5069372;28;20667;-67
2021/03/12 06:27:28;;;;;;;15.23;3.47;;;5.40;99.90;;;;;;5054885;28;20206;-67
2021/03/12 06:29:59;;;;;;;18.07;3.70;;;5.40;99.90;;;;;;5052507;28;20269;-67
2021/03/12 06:32:46;;;;;;;16.37;3.13;;;5.40;99.90;;;;;;5053795;28;20287;-68
2021/03/12 06:35:15;;;;;;;16.17;3.67;;;5.50;99.90;;;;;;5041265;28;20690;-68
2021/03/12 06:37:45;;;;;;;9.47;2.60;;;5.50;99.90;;;;;;5053589;28;20238;-68
2021/03/12 06:40:17;;;;;;;9.40;3.23;;;5.60;99.90;;;;;;5053708;28;20195;-68
2021/03/12 06:42:59;;;;;;;12.60;3.00;;;5.60;99.90;;;;;;5052319;28;20203;-69
2021/03/12 06:45:26;;;;;;;13.77;2.90;;;5.70;99.90;;;;;;5052289;28;20669;-68
2021/03/12 06:47:53;;;;;;;15.67;3.33;;;5.70;99.90;;;;;;5054832;28;20273;-68
2021/03/12 06:50:20;;;;;;;13.17;3.87;;;5.80;99.90;;;;;;5051063;28;20540;-69
2021/03/12 06:52:46;;;;;;;15.40;3.20;;;5.80;99.90;;;;;;5066673;28;20195;-68
2021/03/12 06:55:13;;;;;;;11.77;3.17;;;5.90;99.90;;;;;;5050284;28;20203;-68
2021/03/12 06:57:40;;;;;;;26.17;3.73;;;5.90;99.90;;;;;;5053206;28;20254;-68
2021/03/12 07:00:09;;;;;;;13.47;3.20;;;6.00;99.90;;;;;;5052166;28;20204;-68
2021/03/12 07:02:36;;;;;;;21.77;3.53;;;6.00;99.90;;;;;;5053396;28;20214;-68
2021/03/12 07:05:05;;;;;;;14.83;3.53;;;6.10;99.90;;;;;;5049193;28;20208;-68
2021/03/12 07:07:36;;;;;;;18.17;3.57;;;6.20;99.90;;;;;;5054441;28;20199;-67
2021/03/12 07:10:04;;;;;;;14.57;3.43;;;6.40;99.90;;;;;;5050614;28;20246;-67
2021/03/12 07:12:46;;;;;;;15.33;3.93;;;6.40;99.90;;;;;;5050447;28;20606;-67
2021/03/12 07:15:15;;;;;;;18.93;3.50;;;6.50;99.90;;;;;;5034953;28;20204;-68
2021/03/12 07:17:42;;;;;;;17.20;3.70;;;6.50;99.90;;;;;;5050342;28;20688;-67
2021/03/12 07:20:10;;;;;;;14.30;4.00;;;6.60;99.90;;;;;;5053328;28;20544;-68
2021/03/12 07:22:39;;;;;;;17.40;3.63;;;6.50;99.90;;;;;;5052195;28;20196;-68
2021/03/12 07:25:08;;;;;;;13.63;3.60;;;6.50;99.90;;;;;;5052940;28;20365;-67
2021/03/12 07:27:41;;;;;;;13.20;3.50;;;6.40;99.90;;;;;;5051185;28;20561;-68
2021/03/12 07:30:09;;;;;;;15.30;4.33;;;6.30;99.90;;;;;;5035969;28;20200;-69
2021/03/12 07:32:38;;;;;;;16.43;3.43;;;6.30;99.90;;;;;;5049921;28;20653;-68
2021/03/12 07:35:06;;;;;;;13.30;3.67;;;6.30;99.90;;;;;;5057717;28;20191;-67
2021/03/12 07:37:35;;;;;;;20.03;3.87;;;6.40;99.90;;;;;;5069238;28;20227;-69
2021/03/12 07:40:04;;;;;;;13.97;3.70;;;6.50;99.90;;;;;;5066494;28;20668;-68
2021/03/12 07:42:31;;;;;;;11.20;2.80;;;6.60;99.90;;;;;;5056744;28;20211;-68
2021/03/12 07:44:59;;;;;;;15.53;3.60;;;6.60;99.90;;;;;;5048122;28;20200;-67
2021/03/12 07:47:27;;;;;;;19.43;3.20;;;6.70;99.90;;;;;;5053495;28;20203;-68
2021/03/12 07:49:54;;;;;;;21.20;4.67;;;6.80;99.90;;;;;;5052557;28;20192;-68
2021/03/12 07:52:56;;;;;;;18.60;4.03;;;6.90;99.90;;;;;;5053470;28;20196;-68
2021/03/12 07:55:59;;;;;;;18.20;4.07;;;7.20;99.90;;;;;;5042354;28;20203;-69
2021/03/12 07:58:59;;;;;;;22.27;4.33;;;7.60;99.90;;;;;;5049163;28;20353;-68
2021/03/12 08:01:27;;;;;;;23.50;4.60;;;8.00;99.90;;;;;;5007296;28;20730;-69
2021/03/12 08:03:54;;;;;;;21.50;4.17;;;8.00;99.90;;;;;;5052538;28;20196;-68
2021/03/12 08:06:35;;;;;;;17.73;4.00;;;7.80;99.90;;;;;;5048199;28;20203;-68
2021/03/12 08:09:02;;;;;;;18.90;4.17;;;7.70;99.90;;;;;;5049742;28;20257;-69
2021/03/12 08:11:33;;;;;;;9.47;3.40;;;7.60;99.90;;;;;;5050120;28;20199;-69
2021/03/12 08:14:19;;;;;;;17.03;4.07;;;7.60;99.90;;;;;;5045567;28;20191;-69
2021/03/12 08:17:15;;;;;;;16.47;3.63;;;7.60;99.90;;;;;;5047515;28;20277;-67
2021/03/12 08:19:46;;;;;;;12.47;3.27;;;7.50;99.90;;;;;;5032662;28;20197;-68
2021/03/12 08:22:45;;;;;;;13.90;3.27;;;7.60;99.90;;;;;;5043803;28;20660;-65
2021/03/12 08:25:43;;;;;;;16.47;3.77;;;7.60;99.90;;;;;;5044199;28;20203;-67
2021/03/12 08:28:32;;;;;;;10.47;3.40;;;7.70;99.90;;;;;;5045837;28;20679;-66
2021/03/12 08:31:00;;;;;;;16.30;3.70;;;7.80;99.90;;;;;;5049292;28;20652;-67
2021/03/12 08:33:35;;;;;;;13.17;3.03;;;7.90;99.90;;;;;;5061323;28;20206;-67
2021/03/12 08:36:02;;;;;;;13.17;3.13;;;8.00;99.90;;;;;;5053377;28;20630;-69
2021/03/12 08:38:50;;;;;;;16.87;3.20;;;8.10;99.90;;;;;;5050571;28;20223;-67
2021/03/12 08:41:20;;;;;;;18.63;3.80;;;8.00;99.90;;;;;;5057281;28;20249;-68
2021/03/12 08:43:56;;;;;;;15.40;3.37;;;8.00;99.90;;;;;;5067436;28;20298;-68
2021/03/12 08:46:25;;;;;;;11.63;3.63;;;7.80;99.90;;;;;;5046981;28;20206;-68
2021/03/12 08:48:54;;;;;;;10.47;3.70;;;7.70;99.90;;;;;;5048085;28;20207;-68
2021/03/12 08:51:23;;;;;;;14.47;3.97;;;7.60;99.90;;;;;;5051027;28;20714;-67
2021/03/12 08:53:53;;;;;;;20.00;4.30;;;7.50;99.90;;;;;;5054618;28;20195;-68
2021/03/12 08:56:26;;;;;;;27.90;4.47;;;7.40;99.90;;;;;;5048418;28;20191;-68
2021/03/12 08:58:52;;;;;;;15.07;3.43;;;7.20;99.90;;;;;;5049910;28;20199;-65
2021/03/12 09:01:20;;;;;;;13.80;3.40;;;7.10;99.90;;;;;;5044983;28;20242;-67
2021/03/12 09:03:54;;;;;;;18.70;4.20;;;7.00;99.90;;;;;;5049368;28;20196;-65
2021/03/12 09:06:23;;;;;;;16.03;4.17;;;7.00;99.90;;;;;;5051115;28;20207;-64
2021/03/12 09:08:51;;;;;;;19.23;3.87;;;7.00;99.90;;;;;;5050152;28;20223;-64
2021/03/12 09:11:19;;;;;;;26.23;5.00;;;6.90;99.90;;;;;;5049148;28;20220;-66
2021/03/12 09:13:47;;;;;;;22.77;3.90;;;6.90;99.90;;;;;;5048841;28;20203;-65
2021/03/12 09:16:19;;;;;;;27.93;4.57;;;6.90;99.90;;;;;;5032202;28;20200;-64
2021/03/12 09:18:46;;;;;;;18.13;4.13;;;6.80;99.90;;;;;;5048354;28;20208;-65
2021/03/12 09:21:16;;;;;;;20.00;5.00;;;6.80;99.90;;;;;;5050667;28;20665;-65
2021/03/12 09:23:44;;;;;;;21.17;4.47;;;6.90;99.90;;;;;;5048108;28;20209;-64
2021/03/12 09:26:13;;;;;;;21.70;4.20;;;6.90;99.90;;;;;;5055808;28;20621;-66
2021/03/12 09:28:41;;;;;;;20.67;4.13;;;6.80;99.90;;;;;;5047190;28;20211;-66
2021/03/12 09:31:09;;;;;;;18.20;4.60;;;6.80;99.90;;;;;;5048412;28;20200;-66
2021/03/12 09:33:38;;;;;;;18.67;4.63;;;6.80;99.90;;;;;;5051777;28;20191;-67
2021/03/12 09:36:22;;;;;;;13.43;4.33;;;6.80;99.90;;;;;;5048181;28;20198;-67
2021/03/12 09:38:49;;;;;;;14.03;4.40;;;6.80;99.90;;;;;;5058138;28;20373;-68
2021/03/12 09:41:20;;;;;;;18.20;4.67;;;7.00;99.90;;;;;;5048754;28;20211;-65
2021/03/12 09:43:59;;;;;;;18.47;3.60;;;7.60;99.90;;;;;;5063106;28;20228;-77
2021/03/12 09:46:28;;;;;;;11.87;3.10;;;7.70;99.90;;;;;;5050292;28;20641;-66
2021/03/12 09:48:55;;;;;;;10.77;3.80;;;7.70;99.90;;;;;;5052792;28;20196;-65
2021/03/12 09:51:24;;;;;;;17.07;3.77;;;7.70;99.90;;;;;;5051558;28;20575;-64
2021/03/12 09:53:52;;;;;;;18.93;4.10;;;7.70;99.90;;;;;;5047201;28;20199;-68
2021/03/12 09:56:21;;;;;;;16.93;3.47;;;7.70;99.90;;;;;;5047712;28;20204;-67
2021/03/12 09:58:48;;;;;;;15.13;4.50;;;7.70;99.90;;;;;;5049966;28;20238;-68
2021/03/12 10:01:17;;;;;;;12.43;3.77;;;7.70;99.90;;;;;;5053510;28;20215;-68
2021/03/12 10:03:44;;;;;;;11.53;3.37;;;7.70;99.90;;;;;;5048027;28;21750;-68
2021/03/12 10:06:11;;;;;;;11.50;3.80;;;7.80;99.90;;;;;;5071108;28;20199;-67
2021/03/12 10:09:06;;;;;;;8.33;2.80;;;7.90;99.90;;;;;;5062371;28;20707;-68
2021/03/12 10:11:44;;;;;;;14.57;4.00;;;7.90;99.90;;;;;;5045106;28;20679;-66
2021/03/12 10:14:28;;;;;;;9.50;3.17;;;8.00;99.90;;;;;;5053716;28;20306;-67
2021/03/12 10:17:16;;;;;;;14.27;3.80;;;7.90;99.90;;;;;;5051633;28;20226;-67
2021/03/12 10:19:52;;;;;;;11.03;3.50;;;8.00;99.90;;;;;;5050900;28;20219;-67
2021/03/12 10:22:21;;;;;;;12.60;3.70;;;8.00;99.90;;;;;;5052741;28;20245;-67
2021/03/12 10:24:54;;;;;;;14.13;3.20;;;8.10;99.90;;;;;;5051897;28;20653;-68
2021/03/12 10:27:23;;;;;;;11.83;3.37;;;8.10;99.90;;;;;;5052042;28;20243;-68
2021/03/12 10:29:50;;;;;;;13.30;3.83;;;8.10;99.90;;;;;;5052014;28;20195;-68
2021/03/12 10:32:16;;;;;;;13.03;3.37;;;8.10;99.90;;;;;;5051976;28;20610;-67
2021/03/12 10:34:44;;;;;;;10.77;3.97;;;8.00;99.90;;;;;;5054596;28;20208;-67
2021/03/12 10:37:12;;;;;;;12.10;2.73;;;8.00;99.90;;;;;;5054926;28;20223;-67
2021/03/12 10:39:46;;;;;;;12.00;2.87;;;8.00;99.90;;;;;;5049435;28;20215;-67
2021/03/12 10:42:13;;;;;;;7.27;2.50;;;8.10;99.90;;;;;;5052622;28;20200;-68
2021/03/12 10:44:58;;;;;;;7.30;2.47;;;8.30;99.90;;;;;;5050826;28;20203;-67
2021/03/12 10:47:25;;;;;;;9.50;2.90;;;8.40;99.90;;;;;;5050039;28;20714;-69
2021/03/12 10:49:52;;;;;;;10.10;2.73;;;8.30;99.90;;;;;;5051604;28;20222;-67
2021/03/12 10:52:24;;;;;;;9.67;3.03;;;8.30;99.90;;;;;;5056461;28;20645;-66
2021/03/12 10:54:51;;;;;;;10.27;3.77;;;8.20;99.90;;;;;;5049459;28;20203;-67
2021/03/12 10:57:17;;;;;;;10.17;3.37;;;7.90;99.90;;;;;;5051724;28;20565;-66
2021/03/12 10:59:56;;;;;;;10.00;2.90;;;7.90;99.90;;;;;;5050525;28;20203;-66
2021/03/12 11:02:32;;;;;;;14.27;2.87;;;7.90;99.90;;;;;;5050537;28;20284;-68
2021/03/12 11:04:59;;;;;;;13.50;3.63;;;8.10;99.90;;;;;;5050280;28;20202;-69
2021/03/12 11:07:25;;;;;;;14.40;4.07;;;8.20;99.90;;;;;;5050826;28;20204;-68
2021/03/12 11:09:52;;;;;;;12.17;4.23;;;8.20;99.90;;;;;;5049985;28;20223;-67
2021/03/12 11:12:18;;;;;;;16.83;4.83;;;8.10;99.90;;;;;;5048692;28;20196;-68
2021/03/12 11:14:47;;;;;;;15.17;4.67;;;8.00;99.90;;;;;;5052676;28;20199;-68
2021/03/12 11:17:14;;;;;;;16.47;4.53;;;7.90;99.90;;;;;;5053276;28;20255;-68
2021/03/12 11:19:41;;;;;;;11.97;4.70;;;7.80;99.90;;;;;;5053055;28;20238;-68
2021/03/12 11:22:07;;;;;;;18.00;6.47;;;7.70;99.90;;;;;;5048548;28;20569;-68
2021/03/12 11:24:34;;;;;;;18.13;5.83;;;7.60;99.90;;;;;;5052440;28;20206;-68
2021/03/12 11:27:00;;;;;;;17.67;5.47;;;7.40;99.90;;;;;;5049491;28;20235;-68
2021/03/12 11:29:28;;;;;;;18.67;7.60;;;7.20;99.90;;;;;;5051673;28;20207;-69
2021/03/12 11:31:55;;;;;;;9.40;4.17;;;7.20;99.90;;;;;;5058426;28;20676;-69
2021/03/12 11:34:22;;;;;;;17.13;5.53;;;7.20;99.90;;;;;;5051595;28;20215;-69
2021/03/12 11:36:48;;;;;;;20.00;5.93;;;7.20;99.90;;;;;;5051431;28;20692;-69
2021/03/12 11:39:15;;;;;;;21.43;6.00;;;7.40;99.90;;;;;;5050339;28;20544;-69
2021/03/12 11:41:42;;;;;;;20.70;5.60;;;7.50;99.90;;;;;;5051794;28;20253;-70
2021/03/12 11:44:08;;;;;;;20.37;6.03;;;7.60;99.90;;;;;;5052050;28;20660;-69
2021/03/12 11:46:35;;;;;;;17.20;5.70;;;7.80;99.90;;;;;;5052462;28;20200;-69
2021/03/12 11:49:01;;;;;;;14.97;5.23;;;7.90;99.90;;;;;;5050099;28;20199;-68
2021/03/12 11:51:28;;;;;;;17.60;6.07;;;8.10;99.90;;;;;;5051889;28;20195;-69
2021/03/12 11:53:55;;;;;;;19.43;4.77;;;8.10;99.90;;;;;;5042123;28;20653;-68
2021/03/12 11:56:22;;;;;;;14.17;4.10;;;8.10;99.90;;;;;;5046606;28;20203;-69
2021/03/12 11:58:48;;;;;;;15.27;4.27;;;8.20;99.90;;;;;;5046978;28;20224;-68
2021/03/12 12:01:14;;;;;;;11.97;4.20;;;8.20;99.90;;;;;;5050424;28;20257;-68
2021/03/12 12:03:41;;;;;;;12.33;3.33;;;8.30;99.90;;;;;;5044645;28;20202;-68
2021/03/12 12:06:07;;;;;;;11.37;3.77;;;8.50;99.90;;;;;;5051939;28;20203;-68
2021/03/12 12:08:35;;;;;;;15.33;3.80;;;8.50;99.90;;;;;;5050731;28;20224;-68
2021/03/12 12:11:01;;;;;;;12.20;3.67;;;8.50;99.90;;;;;;5049484;28;20192;-68
2021/03/12 12:13:28;;;;;;;15.57;3.23;;;8.50;99.90;;;;;;5053228;28;20195;-68
2021/03/12 12:15:54;;;;;;;9.47;3.47;;;8.40;99.90;;;;;;5053218;28;20196;-67
2021/03/12 12:18:21;;;;;;;8.97;2.43;;;8.30;99.90;;;;;;5055135;28;20228;-68
2021/03/12 12:20:48;;;;;;;6.67;2.80;;;8.20;99.90;;;;;;5049854;28;20226;-68
2021/03/12 12:23:15;;;;;;;7.73;2.20;;;8.10;99.90;;;;;;5050531;28;20200;-68
2021/03/12 12:25:42;;;;;;;9.50;2.50;;;7.90;99.90;;;;;;5049765;28;20207;-68
2021/03/12 12:28:10;;;;;;;4.30;1.73;;;8.10;99.90;;;;;;5051597;28;20203;-68
2021/03/12 12:30:36;;;;;;;6.73;2.00;;;8.10;99.90;;;;;;5054892;28;20201;-68
2021/03/12 12:33:03;;;;;;;4.13;1.53;;;8.20;99.90;;;;;;5071972;28;20202;-70
2021/03/12 12:35:29;;;;;;;6.53;1.93;;;8.40;99.90;;;;;;5053454;28;20195;-68
2021/03/12 12:37:56;;;;;;;3.80;1.87;;;8.30;99.90;;;;;;5069160;28;20252;-68
2021/03/12 12:40:25;;;;;;;4.30;2.43;;;8.40;99.90;;;;;;5050427;28;20200;-68
2021/03/12 12:42:52;;;;;;;5.63;2.00;;;8.40;99.90;;;;;;5051855;28;20221;-68
2021/03/12 12:45:19;;;;;;;9.57;3.23;;;8.40;99.90;;;;;;5052615;28;20375;-68
2021/03/12 12:47:45;;;;;;;8.83;2.17;;;8.30;99.90;;;;;;5050188;28;20210;-68
2021/03/12 12:50:13;;;;;;;6.27;1.50;;;8.00;99.90;;;;;;5050179;28;20661;-68
2021/03/12 12:52:40;;;;;;;9.10;3.03;;;7.90;99.90;;;;;;5052557;28;20199;-68
2021/03/12 12:55:07;;;;;;;8.77;2.73;;;7.70;99.90;;;;;;5050095;28;20200;-67
2021/03/12 12:57:35;;;;;;;7.43;2.30;;;7.60;99.90;;;;;;5052379;28;20223;-68
2021/03/12 13:00:05;;;;;;;7.40;2.40;;;7.40;99.90;;;;;;5056736;28;20257;-68